Time;durP1;ratioP1;P1;durP2;ratioP2;P2;SDS_P1;SDS_P2;PMS_P1;PMS_P2;Temp;Humidity;BMP_temperature;BMP_pressure;BME280_temperature;BME280_humidity;BME280_pressure;Samples;Min_cycle;Max_cycle;Signal;HPM_P1;HPM_P2
2022/09/19 00:02:43;;;;;;;5.20;5.00;;;12.60;99.90;;;;;;10415326;28;20221;-81
2022/09/19 00:07:48;;;;;;;5.23;5.03;;;12.60;99.90;;;;;;10417062;28;20256;-81
2022/09/19 00:12:51;;;;;;;5.00;4.80;;;12.50;99.90;;;;;;10406333;28;20232;-80
2022/09/19 00:17:53;;;;;;;4.90;4.80;;;12.50;99.90;;;;;;10422054;28;20221;-80
2022/09/19 00:28:16;;;;;;;4.20;4.10;;;12.30;99.90;;;;;;10435535;28;20589;-81
2022/09/19 00:33:20;;;;;;;4.60;4.40;;;12.20;99.90;;;;;;10417181;28;20248;-80
2022/09/19 00:38:25;;;;;;;3.10;3.00;;;12.10;99.90;;;;;;10434294;28;20214;-81
2022/09/19 00:43:44;;;;;;;3.53;3.23;;;12.10;99.90;;;;;;10441800;28;20224;-81
2022/09/19 00:48:50;;;;;;;3.27;3.17;;;12.00;99.90;;;;;;10440272;28;20612;-81
2022/09/19 00:53:53;;;;;;;3.23;3.13;;;12.00;99.90;;;;;;10444018;28;20716;-81
2022/09/19 00:58:57;;;;;;;2.90;2.80;;;11.90;99.90;;;;;;10427107;28;20198;-81
2022/09/19 01:04:01;;;;;;;2.90;2.80;;;11.90;99.90;;;;;;10419129;28;20218;-81
2022/09/19 01:09:18;;;;;;;3.20;3.10;;;11.90;99.90;;;;;;10407755;28;20187;-80
2022/09/19 01:14:31;;;;;;;2.93;2.83;;;11.90;99.90;;;;;;10428029;28;20302;-80
2022/09/19 01:20:03;;;;;;;2.83;2.73;;;11.90;99.90;;;;;;10413773;28;20212;-81
2022/09/19 01:25:14;;;;;;;4.00;2.90;;;11.80;99.90;;;;;;10410088;28;20267;-80
2022/09/19 01:30:18;;;;;;;2.37;2.37;;;11.80;99.90;;;;;;10403367;28;20186;-81
2022/09/19 01:35:26;;;;;;;2.47;2.40;;;11.80;99.90;;;;;;10388637;28;20234;-81
2022/09/19 01:40:29;;;;;;;2.37;2.30;;;11.70;99.90;;;;;;10425129;28;20198;-80
2022/09/19 01:45:39;;;;;;;2.60;2.50;;;11.70;99.90;;;;;;10425746;28;20301;-80
2022/09/19 01:50:54;;;;;;;2.90;2.80;;;11.70;99.90;;;;;;10409723;28;20549;-81
2022/09/19 01:56:04;;;;;;;2.70;2.60;;;11.70;99.90;;;;;;10448911;28;20280;-80
2022/09/19 02:01:19;;;;;;;2.90;2.80;;;11.70;99.90;;;;;;10415641;28;20201;-81
2022/09/19 02:06:30;;;;;;;2.90;2.70;;;11.70;99.90;;;;;;10413662;28;20217;-81
2022/09/19 02:11:32;;;;;;;3.07;2.97;;;11.80;99.90;;;;;;10391267;28;20190;-81
2022/09/19 02:16:47;;;;;;;3.27;3.17;;;11.80;99.90;;;;;;10413871;28;20214;-81
2022/09/19 02:21:54;;;;;;;3.10;2.90;;;11.70;99.90;;;;;;10407548;28;20229;-81
2022/09/19 02:27:00;;;;;;;3.23;3.03;;;11.70;99.90;;;;;;10383303;28;20191;-81
2022/09/19 02:32:07;;;;;;;3.73;2.83;;;11.70;99.90;;;;;;10393476;28;20264;-81
2022/09/19 02:37:17;;;;;;;3.23;3.13;;;11.70;99.90;;;;;;10407274;28;20285;-82
2022/09/19 02:42:24;;;;;;;2.90;2.70;;;11.70;99.90;;;;;;10404259;28;20233;-81
2022/09/19 02:47:34;;;;;;;3.30;3.10;;;11.70;99.90;;;;;;10384729;28;20202;-81
2022/09/19 02:52:38;;;;;;;3.53;2.50;;;11.70;99.90;;;;;;10402644;28;20281;-82
2022/09/19 02:57:52;;;;;;;3.20;3.10;;;11.70;99.90;;;;;;10433485;28;20218;-82
2022/09/19 03:03:01;;;;;;;3.63;2.60;;;11.80;99.90;;;;;;10395598;28;20249;-81
2022/09/19 03:08:19;;;;;;;2.73;2.63;;;11.80;99.90;;;;;;10415368;28;20190;-81
2022/09/19 03:13:24;;;;;;;2.80;2.70;;;11.80;99.90;;;;;;10439329;23;20229;-79
2022/09/19 03:18:29;;;;;;;3.43;3.13;;;11.80;99.90;;;;;;10420001;28;20712;-79
2022/09/19 03:23:35;;;;;;;3.33;3.10;;;11.80;99.90;;;;;;10402558;28;20482;-79
2022/09/19 03:28:37;;;;;;;3.20;3.00;;;11.80;99.90;;;;;;10386177;28;20216;-79
2022/09/19 03:33:41;;;;;;;3.20;3.00;;;11.80;99.90;;;;;;10397207;28;20222;-79
2022/09/19 03:38:46;;;;;;;4.60;4.00;;;11.90;99.90;;;;;;10394543;28;20237;-79
2022/09/19 03:43:53;;;;;;;4.47;4.20;;;12.00;99.90;;;;;;10413302;28;20222;-79
2022/09/19 03:48:56;;;;;;;5.17;4.20;;;12.00;99.90;;;;;;10399207;28;20254;-79
2022/09/19 03:53:59;;;;;;;3.80;3.60;;;12.00;99.90;;;;;;10395975;28;20218;-79
2022/09/19 03:59:06;;;;;;;4.30;4.10;;;12.00;99.90;;;;;;10412487;28;20222;-79
2022/09/19 04:04:11;;;;;;;4.23;4.03;;;12.00;99.90;;;;;;10409876;28;20304;-79
2022/09/19 04:09:18;;;;;;;5.37;4.97;;;12.10;99.90;;;;;;10389587;28;20195;-79
2022/09/19 04:14:23;;;;;;;5.17;3.80;;;12.10;99.90;;;;;;10391754;28;20225;-79
2022/09/19 04:19:29;;;;;;;4.40;4.10;;;12.20;99.90;;;;;;10414216;28;20194;-80
2022/09/19 04:24:57;;;;;;;5.13;4.73;;;12.20;99.90;;;;;;10389950;28;20221;-80
2022/09/19 04:30:11;;;;;;;4.87;3.40;;;12.20;99.90;;;;;;10388073;28;20699;-79
2022/09/19 04:35:14;;;;;;;4.67;4.10;;;12.30;99.90;;;;;;10410355;28;20342;-80
2022/09/19 04:40:17;;;;;;;4.80;4.47;;;12.30;99.90;;;;;;10390212;28;20634;-80
2022/09/19 04:45:20;;;;;;;4.17;3.50;;;12.30;99.90;;;;;;10405142;28;20285;-79
2022/09/19 04:50:37;;;;;;;5.27;4.93;;;12.40;99.90;;;;;;10401148;28;20206;-79
2022/09/19 04:55:39;;;;;;;6.03;4.60;;;12.40;99.90;;;;;;10383996;28;20646;-80
2022/09/19 05:00:45;;;;;;;4.97;4.63;;;12.40;99.90;;;;;;10416874;28;20247;-80
2022/09/19 05:05:53;;;;;;;4.73;4.30;;;12.50;99.90;;;;;;10404266;28;20228;-80
2022/09/19 05:11:03;;;;;;;5.40;4.60;;;12.50;99.90;;;;;;10408013;28;20206;-80
2022/09/19 05:16:07;;;;;;;3.67;3.37;;;12.50;99.90;;;;;;10419072;28;20320;-80
2022/09/19 05:21:14;;;;;;;3.47;3.17;;;12.50;99.90;;;;;;10422279;28;20228;-80
2022/09/19 05:26:17;;;;;;;5.03;4.57;;;12.60;99.90;;;;;;10399957;28;20274;-80
2022/09/19 05:31:24;;;;;;;5.60;5.10;;;12.60;99.90;;;;;;10407057;28;20202;-80
2022/09/19 05:36:51;;;;;;;5.53;5.03;;;12.70;99.90;;;;;;10414397;28;20240;-79
2022/09/19 05:42:08;;;;;;;4.37;4.17;;;12.70;99.90;;;;;;10416774;28;20610;-80
2022/09/19 05:47:10;;;;;;;5.57;5.07;;;12.70;99.90;;;;;;10412603;28;20194;-79
2022/09/19 05:57:36;;;;;;;5.07;4.63;;;12.80;99.90;;;;;;10411420;28;20703;-80
2022/09/19 06:02:39;;;;;;;5.67;5.27;;;12.80;99.90;;;;;;10385160;28;20694;-79
2022/09/19 06:07:46;;;;;;;5.37;4.93;;;12.90;99.90;;;;;;10411910;28;20244;-79
2022/09/19 06:12:48;;;;;;;5.43;5.03;;;12.90;99.90;;;;;;10383635;28;20230;-79
2022/09/19 06:17:54;;;;;;;10.20;5.53;;;12.90;99.90;;;;;;10411369;28;20243;-79
2022/09/19 06:23:24;;;;;;;6.97;4.40;;;13.10;99.90;;;;;;10379364;28;20564;-80
2022/09/19 06:28:26;;;;;;;5.40;2.87;;;13.20;99.90;;;;;;10400246;28;20245;-80
2022/09/19 06:33:41;;;;;;;5.33;4.93;;;13.30;99.90;;;;;;10418025;28;20324;-80
2022/09/19 06:38:51;;;;;;;6.20;4.30;;;13.40;99.90;;;;;;10398264;28;20218;-80
2022/09/19 06:44:15;;;;;;;6.00;5.30;;;13.40;99.90;;;;;;10414530;28;20291;-80
2022/09/19 06:49:36;;;;;;;5.50;5.13;;;13.50;99.90;;;;;;10379747;28;20262;-80
2022/09/19 06:55:06;;;;;;;7.27;4.90;;;13.60;99.90;;;;;;10408739;28;20309;-80
2022/09/19 07:00:11;;;;;;;5.20;4.80;;;13.60;99.90;;;;;;10377773;28;20194;-79
2022/09/19 07:05:14;;;;;;;6.20;5.60;;;13.70;99.90;;;;;;10411980;28;20293;-82
2022/09/19 07:10:25;;;;;;;5.17;4.53;;;13.70;99.90;;;;;;10395072;28;20194;-81
2022/09/19 07:15:28;;;;;;;6.20;4.50;;;13.80;99.90;;;;;;10384565;28;20221;-81
2022/09/19 07:20:31;;;;;;;7.93;5.03;;;13.80;99.90;;;;;;10412902;28;20230;-81
2022/09/19 07:25:48;;;;;;;5.97;4.03;;;13.90;99.90;;;;;;10380511;28;20290;-81
2022/09/19 07:30:51;;;;;;;6.13;5.30;;;14.00;99.90;;;;;;10369792;28;20637;-81
2022/09/19 07:35:55;;;;;;;7.73;4.70;;;14.00;99.90;;;;;;10412465;28;20222;-80
2022/09/19 07:41:00;;;;;;;5.57;4.93;;;14.00;99.90;;;;;;10386212;28;20205;-82
2022/09/19 07:46:07;;;;;;;6.80;5.40;;;14.00;99.90;;;;;;10394756;28;20261;-81
2022/09/19 07:51:22;;;;;;;4.83;4.43;;;14.10;99.90;;;;;;10385088;28;20673;-81
2022/09/19 07:56:27;;;;;;;9.50;5.43;;;14.10;99.90;;;;;;10411825;28;20198;-80
2022/09/19 08:01:30;;;;;;;6.73;4.10;;;14.20;99.90;;;;;;10395218;28;20206;-80
2022/09/19 08:06:45;;;;;;;3.53;2.83;;;14.30;99.90;;;;;;10412879;28;20214;-81
2022/09/19 08:11:50;;;;;;;6.20;4.20;;;14.40;99.90;;;;;;10382032;28;20236;-79
2022/09/19 08:16:54;;;;;;;5.00;3.93;;;14.50;99.90;;;;;;10408564;28;20245;-80
2022/09/19 08:21:57;;;;;;;4.37;3.77;;;14.50;99.90;;;;;;10389611;28;20237;-78
2022/09/19 08:27:01;;;;;;;6.60;3.80;;;14.50;99.90;;;;;;10413694;28;20210;-80
2022/09/19 08:32:03;;;;;;;5.10;4.33;;;14.60;99.90;;;;;;10415592;28;20252;-80
2022/09/19 08:37:07;;;;;;;6.27;3.83;;;14.60;99.90;;;;;;10402091;28;20226;-80
2022/09/19 08:42:21;;;;;;;6.50;5.00;;;14.70;99.90;;;;;;10408924;28;20202;-77
2022/09/19 08:47:28;;;;;;;7.33;5.13;;;14.90;99.90;;;;;;10384450;28;20193;-77
2022/09/19 08:52:37;;;;;;;6.03;4.70;;;15.10;99.90;;;;;;10385126;28;20696;-78
2022/09/19 08:57:50;;;;;;;8.03;5.17;;;15.30;99.90;;;;;;10404492;28;20678;-79
2022/09/19 09:02:58;;;;;;;8.50;4.57;;;15.50;99.90;;;;;;10402456;28;20241;-79
2022/09/19 09:08:08;;;;;;;8.47;4.40;;;15.60;99.90;;;;;;10410575;28;20736;-79
2022/09/19 09:13:37;;;;;;;4.40;3.93;;;15.60;99.90;;;;;;10419272;22;20233;-80
2022/09/19 09:18:59;;;;;;;12.43;4.30;;;15.50;99.90;;;;;;10415461;28;20703;-78
2022/09/19 09:24:08;;;;;;;6.73;4.83;;;15.50;99.90;;;;;;10415663;28;20213;-78
2022/09/19 09:29:27;;;;;;;5.77;3.67;;;15.50;99.90;;;;;;10385234;28;20193;-80
2022/09/19 09:34:52;;;;;;;4.80;4.00;;;15.60;99.90;;;;;;10392952;28;20223;-78
2022/09/19 09:40:09;;;;;;;4.43;3.00;;;15.70;99.90;;;;;;10380938;28;20222;-79
2022/09/19 09:45:22;;;;;;;5.00;3.90;;;15.70;99.90;;;;;;10389546;28;20709;-78
2022/09/19 09:50:48;;;;;;;5.73;4.47;;;15.70;99.90;;;;;;10383250;28;20198;-79
2022/09/19 09:56:16;;;;;;;7.30;4.60;;;15.70;99.90;;;;;;10374048;28;20326;-79
2022/09/19 10:07:13;;;;;;;5.00;4.50;;;15.70;99.90;;;;;;10385747;28;20293;-78
2022/09/19 10:12:23;;;;;;;8.73;4.10;;;15.70;99.90;;;;;;10402869;28;20194;-78
2022/09/19 10:17:32;;;;;;;3.40;3.10;;;15.70;99.90;;;;;;10377515;28;20219;-80
2022/09/19 10:22:41;;;;;;;4.90;4.50;;;15.90;99.90;;;;;;10422264;28;20194;-81
2022/09/19 10:27:45;;;;;;;6.90;3.33;;;16.20;99.90;;;;;;10406380;28;20264;-81
2022/09/19 10:33:28;;;;;;;5.73;4.40;;;16.50;99.90;;;;;;10360485;28;20261;-78
2022/09/19 10:38:58;;;;;;;4.80;4.13;;;16.70;99.90;;;;;;10411864;28;20714;-78
2022/09/19 10:44:03;;;;;;;5.03;4.03;;;16.90;99.20;;;;;;10386691;28;20230;-78
2022/09/19 10:49:18;;;;;;;4.63;3.93;;;16.90;98.80;;;;;;10411785;28;20191;-79
2022/09/19 10:54:32;;;;;;;4.03;3.63;;;16.90;98.60;;;;;;10382239;28;20226;-78
2022/09/19 10:59:37;;;;;;;4.40;4.07;;;16.90;99.00;;;;;;10403886;28;20678;-79
2022/09/19 11:04:59;;;;;;;3.93;3.23;;;16.90;98.90;;;;;;10365444;28;20227;-78
2022/09/19 11:10:09;;;;;;;4.00;3.30;;;17.00;99.00;;;;;;10400126;28;20191;-78
2022/09/19 11:15:16;;;;;;;4.23;3.93;;;17.10;98.90;;;;;;10368819;28;20221;-78
2022/09/19 11:20:35;;;;;;;4.20;4.00;;;17.10;98.30;;;;;;10401828;28;20689;-78
2022/09/19 11:25:54;;;;;;;4.30;4.00;;;17.20;98.80;;;;;;10394229;28;20324;-78
2022/09/19 11:31:06;;;;;;;4.47;4.17;;;17.00;98.30;;;;;;10394119;28;20198;-78
2022/09/19 11:36:21;;;;;;;2.70;2.40;;;16.90;99.30;;;;;;10416931;28;20210;-78
2022/09/19 11:41:33;;;;;;;4.23;3.90;;;16.80;99.50;;;;;;10416847;28;20228;-78
2022/09/19 11:46:49;;;;;;;4.70;3.83;;;16.60;98.50;;;;;;10416502;28;20218;-78
2022/09/19 11:52:02;;;;;;;3.77;3.57;;;16.50;99.00;;;;;;10397924;28;20300;-78
2022/09/19 11:57:17;;;;;;;6.90;4.40;;;16.50;99.90;;;;;;10396988;28;20309;-78
2022/09/19 12:02:46;;;;;;;4.20;3.90;;;16.50;99.50;;;;;;10409094;28;20293;-78
2022/09/19 12:08:01;;;;;;;3.90;3.60;;;16.50;98.30;;;;;;10413420;28;20205;-78
2022/09/19 12:13:09;;;;;;;4.53;4.17;;;16.40;99.90;;;;;;10414777;28;20324;-78
2022/09/19 12:18:22;;;;;;;6.37;3.40;;;16.40;99.90;;;;;;10385902;28;20581;-79
2022/09/19 12:29:04;;;;;;;3.60;3.47;;;16.60;99.90;;;;;;10415497;28;20666;-79
2022/09/19 12:34:14;;;;;;;4.03;3.70;;;16.80;99.90;;;;;;10383210;28;20765;-79
2022/09/19 12:39:23;;;;;;;4.30;4.00;;;17.00;99.90;;;;;;10411609;28;20221;-78
2022/09/19 12:44:34;;;;;;;4.50;4.20;;;17.10;99.90;;;;;;10381750;28;20215;-79
2022/09/19 12:49:41;;;;;;;4.67;4.30;;;17.10;99.90;;;;;;10412814;28;20558;-79
2022/09/19 12:54:52;;;;;;;4.70;4.40;;;17.10;99.90;;;;;;10384535;28;20277;-78
2022/09/19 12:59:54;;;;;;;4.87;4.57;;;17.10;98.10;;;;;;10421006;28;20252;-78
2022/09/19 13:05:02;;;;;;;4.30;4.10;;;17.10;99.10;;;;;;10371177;28;20671;-78
2022/09/19 13:10:18;;;;;;;4.43;3.70;;;17.10;99.20;;;;;;10421363;28;20570;-78
2022/09/19 13:15:25;;;;;;;4.97;4.67;;;17.10;98.60;;;;;;10384621;28;20280;-78
2022/09/19 13:25:55;;;;;;;4.13;3.90;;;16.90;99.10;;;;;;10380200;28;20210;-78
2022/09/19 13:31:11;;;;;;;4.63;4.33;;;16.90;98.20;;;;;;10383586;28;20223;-78
2022/09/19 13:36:16;;;;;;;4.00;3.80;;;16.80;98.50;;;;;;10384410;28;20226;-79
2022/09/19 13:41:26;;;;;;;4.60;4.20;;;16.80;99.00;;;;;;10423445;28;20727;-80
2022/09/19 13:46:32;;;;;;;4.70;4.30;;;16.80;99.30;;;;;;10385563;28;20265;-81
2022/09/19 13:51:41;;;;;;;3.60;3.40;;;16.70;99.30;;;;;;10421710;28;20190;-80
2022/09/19 13:56:49;;;;;;;4.10;3.57;;;16.70;99.30;;;;;;10388184;28;20300;-81
2022/09/19 14:01:57;;;;;;;4.07;3.80;;;16.70;99.00;;;;;;10423531;28;20205;-78
2022/09/19 14:07:01;;;;;;;4.17;3.87;;;16.90;99.80;;;;;;10388743;28;20289;-78
2022/09/19 14:12:45;;;;;;;3.53;3.23;;;17.00;98.90;;;;;;10424324;28;20217;-80
2022/09/19 14:23:18;;;;;;;4.30;3.90;;;17.10;97.70;;;;;;10669090;27;21073;-79
2022/09/19 14:28:39;;;;;;;4.03;3.77;;;17.20;98.40;;;;;;10625739;27;20681;-79
2022/09/19 14:34:18;;;;;;;4.67;4.37;;;17.30;97.40;;;;;;10626650;27;20206;-79
2022/09/19 14:39:52;;;;;;;4.43;4.13;;;17.40;97.20;;;;;;10624937;28;20306;-79
2022/09/19 14:45:22;;;;;;;4.27;3.97;;;17.40;96.60;;;;;;10614286;27;20574;-79
2022/09/19 14:50:26;;;;;;;4.17;3.87;;;17.30;96.70;;;;;;10622517;27;20210;-79
2022/09/19 14:55:37;;;;;;;6.33;4.00;;;17.30;96.50;;;;;;10621229;27;20284;-79
2022/09/19 15:00:44;;;;;;;4.53;4.23;;;17.20;97.00;;;;;;10622191;27;20218;-79
2022/09/19 15:05:47;;;;;;;4.23;4.00;;;17.10;98.60;;;;;;10619687;27;20253;-79
2022/09/19 15:11:00;;;;;;;4.20;3.90;;;17.00;99.90;;;;;;10614842;27;20564;-79
2022/09/19 15:16:05;;;;;;;5.43;5.03;;;16.60;99.90;;;;;;10533152;22;20276;-80
2022/09/19 15:21:09;;;;;;;5.73;5.40;;;16.30;99.90;;;;;;10456394;28;20213;-80
2022/09/19 15:26:17;;;;;;;6.10;5.70;;;16.00;99.90;;;;;;10442156;28;20634;-80
2022/09/19 15:31:23;;;;;;;6.27;5.90;;;15.80;99.90;;;;;;10438178;28;20190;-80
2022/09/19 15:36:25;;;;;;;6.40;6.00;;;15.50;99.90;;;;;;10390160;28;20223;-80
2022/09/19 15:41:30;;;;;;;7.33;6.90;;;15.40;99.90;;;;;;10407854;28;20282;-80
2022/09/19 15:46:43;;;;;;;8.87;8.07;;;15.30;99.90;;;;;;10392737;28;20225;-80
2022/09/19 15:51:55;;;;;;;7.73;7.23;;;15.10;99.90;;;;;;10410668;28;20645;-80
2022/09/19 15:57:19;;;;;;;6.90;6.50;;;15.00;99.90;;;;;;10391489;28;20214;-80
2022/09/19 16:02:23;;;;;;;8.07;7.27;;;14.90;99.90;;;;;;10413128;28;20281;-80
2022/09/19 16:12:51;;;;;;;8.90;8.07;;;14.70;99.90;;;;;;10368678;28;20225;-78
2022/09/19 16:18:13;;;;;;;10.10;9.40;;;14.60;99.90;;;;;;10368581;28;20230;-80
2022/09/19 16:23:17;;;;;;;8.70;8.00;;;14.60;99.90;;;;;;10359786;28;20534;-80
2022/09/19 16:28:28;;;;;;;7.77;7.17;;;14.70;99.90;;;;;;10369202;28;20205;-81
2022/09/19 16:33:34;;;;;;;8.60;7.80;;;14.70;99.90;;;;;;10365418;28;20770;-79
2022/09/19 16:38:36;;;;;;;8.53;7.77;;;14.60;99.90;;;;;;10369333;28;20671;-79
2022/09/19 16:43:42;;;;;;;8.10;7.50;;;14.60;99.90;;;;;;10359821;28;20229;-78
2022/09/19 16:48:44;;;;;;;8.23;6.43;;;14.60;99.90;;;;;;10362237;28;20254;-80
2022/09/19 16:53:46;;;;;;;8.27;7.67;;;14.60;99.90;;;;;;10370696;28;20231;-80
2022/09/19 16:58:50;;;;;;;6.30;5.77;;;14.50;99.90;;;;;;10372023;28;20265;-79
2022/09/19 17:03:52;;;;;;;7.53;7.07;;;14.50;99.90;;;;;;10358344;28;20222;-79
2022/09/19 17:08:57;;;;;;;7.10;6.60;;;14.50;99.90;;;;;;10380150;28;20666;-79
2022/09/19 17:14:13;;;;;;;9.20;8.23;;;14.40;99.90;;;;;;10382615;28;20226;-80
2022/09/19 17:19:15;;;;;;;6.77;6.47;;;14.40;99.90;;;;;;10375430;28;20248;-78
2022/09/19 17:24:17;;;;;;;7.00;6.60;;;14.30;99.90;;;;;;10373083;28;20234;-80
2022/09/19 17:29:21;;;;;;;6.83;6.53;;;14.30;99.90;;;;;;10380520;28;20201;-82
2022/09/19 17:34:23;;;;;;;10.00;9.23;;;14.20;99.90;;;;;;10384806;28;20226;-81
2022/09/19 17:39:25;;;;;;;7.03;6.73;;;14.20;99.90;;;;;;10366483;28;20211;-79
2022/09/19 17:44:28;;;;;;;7.70;7.20;;;14.20;99.90;;;;;;10374067;28;20238;-80
2022/09/19 17:49:30;;;;;;;6.70;6.20;;;14.10;99.90;;;;;;10410152;28;20670;-79
2022/09/19 17:54:33;;;;;;;9.40;8.80;;;14.10;99.90;;;;;;10365103;28;20821;-79
2022/09/19 17:59:36;;;;;;;9.13;8.53;;;14.10;99.90;;;;;;10366038;28;20316;-79
2022/09/19 18:04:38;;;;;;;7.50;7.10;;;14.10;99.90;;;;;;10367930;28;20588;-78
2022/09/19 18:09:40;;;;;;;6.97;6.67;;;14.00;99.90;;;;;;10380489;28;20261;-78
2022/09/19 18:14:44;;;;;;;7.20;6.77;;;14.00;99.90;;;;;;10370905;28;20238;-80
2022/09/19 18:19:46;;;;;;;7.37;6.87;;;14.00;99.90;;;;;;10348610;28;20709;-79
2022/09/19 18:24:48;;;;;;;7.63;7.17;;;14.00;99.90;;;;;;10385035;28;20222;-79
2022/09/19 18:29:53;;;;;;;6.70;6.40;;;14.00;99.90;;;;;;10365274;28;20207;-79
2022/09/19 18:34:55;;;;;;;7.17;6.67;;;13.90;99.90;;;;;;10382512;28;20226;-78
2022/09/19 18:39:58;;;;;;;7.40;6.90;;;13.90;99.90;;;;;;10375823;28;20214;-81
2022/09/19 18:45:01;;;;;;;7.60;7.10;;;13.90;99.90;;;;;;10359819;28;20324;-80
2022/09/19 18:50:05;;;;;;;8.50;7.70;;;13.90;99.90;;;;;;10361223;28;20199;-79
2022/09/19 18:55:08;;;;;;;9.30;8.50;;;13.90;99.90;;;;;;10377682;28;20222;-81
2022/09/19 19:00:12;;;;;;;8.03;7.43;;;13.80;99.90;;;;;;10357324;28;20864;-79
2022/09/19 19:05:14;;;;;;;8.13;7.33;;;13.80;99.90;;;;;;10364226;28;20218;-79
2022/09/19 19:10:17;;;;;;;7.60;7.10;;;13.80;99.90;;;;;;10376378;28;20278;-79
2022/09/19 19:15:21;;;;;;;7.33;6.77;;;13.70;99.90;;;;;;10380105;28;20253;-79
2022/09/19 19:20:23;;;;;;;9.37;8.53;;;13.70;99.90;;;;;;10375216;28;20218;-79
2022/09/19 19:25:26;;;;;;;8.40;7.60;;;13.60;99.90;;;;;;10368249;28;20249;-79
2022/09/19 19:30:30;;;;;;;11.50;10.60;;;13.60;99.90;;;;;;10375079;28;20198;-80
2022/09/19 19:35:32;;;;;;;16.97;15.40;;;13.50;99.90;;;;;;10376685;28;20237;-79
2022/09/19 19:40:34;;;;;;;9.90;9.10;;;13.40;99.90;;;;;;10371205;28;20219;-79
2022/09/19 19:45:38;;;;;;;10.20;9.40;;;13.40;99.90;;;;;;10365816;28;20645;-80
2022/09/19 19:50:40;;;;;;;8.90;8.20;;;13.40;99.90;;;;;;10376020;28;20206;-80
2022/09/19 19:55:42;;;;;;;11.00;10.10;;;13.30;99.90;;;;;;10370068;28;20227;-79
2022/09/19 20:00:46;;;;;;;12.07;10.97;;;13.30;99.90;;;;;;10395619;28;20218;-79
2022/09/19 20:05:49;;;;;;;9.70;8.53;;;13.30;99.90;;;;;;10384557;28;20318;-82
2022/09/19 20:10:55;;;;;;;11.03;10.23;;;13.20;99.90;;;;;;10371381;28;20202;-81
2022/09/19 20:16:00;;;;;;;7.20;6.70;;;13.10;99.90;;;;;;10373477;28;20236;-81
2022/09/19 20:21:02;;;;;;;6.20;5.70;;;13.10;99.90;;;;;;10371048;28;20223;-80
2022/09/19 20:26:05;;;;;;;6.80;6.13;;;13.10;99.90;;;;;;10363281;28;20225;-79
2022/09/19 20:31:10;;;;;;;8.40;6.47;;;13.00;99.90;;;;;;10358023;28;20213;-79
2022/09/19 20:36:12;;;;;;;8.00;7.20;;;13.00;99.90;;;;;;10377064;28;20250;-81
2022/09/19 20:41:14;;;;;;;6.60;5.60;;;12.90;99.90;;;;;;10377051;28;20249;-80
2022/09/19 20:46:18;;;;;;;7.67;7.07;;;12.90;99.90;;;;;;10363334;28;20309;-81
2022/09/19 20:51:22;;;;;;;8.07;5.37;;;12.80;99.90;;;;;;10372364;28;20194;-79
2022/09/19 20:56:26;;;;;;;5.27;4.70;;;12.80;99.90;;;;;;10369466;28;20222;-80
2022/09/19 21:01:34;;;;;;;6.03;5.63;;;12.80;99.90;;;;;;10371659;28;20587;-79
2022/09/19 21:06:36;;;;;;;6.47;5.70;;;12.80;99.90;;;;;;10374370;28;20701;-80
2022/09/19 21:11:38;;;;;;;5.40;4.90;;;12.80;99.90;;;;;;10377694;28;20634;-78
2022/09/19 21:16:42;;;;;;;5.30;4.90;;;12.80;99.90;;;;;;10371695;28;20303;-79
2022/09/19 21:21:44;;;;;;;5.67;5.17;;;12.80;99.90;;;;;;10371576;28;20221;-79
2022/09/19 21:26:47;;;;;;;5.80;4.10;;;12.80;99.90;;;;;;10374570;28;20225;-79
2022/09/19 21:31:50;;;;;;;6.13;5.00;;;12.80;99.90;;;;;;10373023;28;20195;-80
2022/09/19 21:36:52;;;;;;;5.13;4.63;;;12.80;99.90;;;;;;10374299;28;20222;-79
2022/09/19 21:41:56;;;;;;;5.20;4.70;;;12.80;99.90;;;;;;10369596;28;20764;-79
2022/09/19 21:46:59;;;;;;;9.83;5.83;;;12.80;99.90;;;;;;10370341;28;20226;-79
2022/09/19 21:52:01;;;;;;;10.23;9.13;;;12.80;99.90;;;;;;10352767;28;20608;-77
2022/09/19 21:57:04;;;;;;;27.20;16.23;;;12.80;99.90;;;;;;10369013;28;20304;-78
2022/09/19 22:02:07;;;;;;;5.10;4.70;;;12.80;99.90;;;;;;10367117;28;20305;-79
2022/09/19 22:07:09;;;;;;;7.17;6.47;;;12.80;99.90;;;;;;10364481;28;20615;-78
2022/09/19 22:12:12;;;;;;;6.03;5.50;;;12.80;99.90;;;;;;10373672;28;20191;-79
2022/09/19 22:17:16;;;;;;;8.30;7.50;;;12.70;99.90;;;;;;10372114;28;20265;-79
2022/09/19 22:22:18;;;;;;;5.63;5.13;;;12.60;99.90;;;;;;10345167;28;20227;-78
2022/09/19 22:27:20;;;;;;;7.03;5.07;;;12.60;99.90;;;;;;10340237;28;20269;-79
2022/09/19 22:32:23;;;;;;;5.30;4.80;;;12.60;99.90;;;;;;10363146;28;20186;-79
2022/09/19 22:37:25;;;;;;;7.30;6.70;;;12.50;99.90;;;;;;10370153;28;20264;-79
2022/09/19 22:42:27;;;;;;;8.87;5.93;;;12.50;99.90;;;;;;10375342;28;20947;-79
2022/09/19 22:47:31;;;;;;;5.00;4.50;;;12.50;99.90;;;;;;10367797;28;20313;-79
2022/09/19 22:52:34;;;;;;;7.33;6.63;;;12.40;99.90;;;;;;10377748;28;20199;-79
2022/09/19 22:57:36;;;;;;;5.53;4.87;;;12.40;99.90;;;;;;10373499;28;20312;-79
2022/09/19 23:02:40;;;;;;;5.20;4.53;;;12.30;99.90;;;;;;10366945;28;20717;-79
2022/09/19 23:07:42;;;;;;;7.13;5.00;;;12.30;99.90;;;;;;10366328;28;20222;-79
2022/09/19 23:12:44;;;;;;;8.10;5.40;;;12.30;99.90;;;;;;10377263;28;20203;-79
2022/09/19 23:17:48;;;;;;;5.20;4.30;;;12.30;99.90;;;;;;10376861;28;20223;-79
2022/09/19 23:22:50;;;;;;;3.97;3.73;;;12.30;99.90;;;;;;10368113;28;20215;-79
2022/09/19 23:27:52;;;;;;;4.40;4.10;;;12.30;99.90;;;;;;10366048;28;20225;-79
2022/09/19 23:32:55;;;;;;;4.03;3.63;;;12.20;99.90;;;;;;10366486;28;20250;-79
2022/09/19 23:37:57;;;;;;;7.73;4.30;;;12.20;99.90;;;;;;10391066;28;20218;-80
2022/09/19 23:42:59;;;;;;;5.87;4.87;;;12.20;99.90;;;;;;10384587;28;20309;-80
2022/09/19 23:48:03;;;;;;;4.20;3.90;;;12.20;99.90;;;;;;10402758;28;20212;-80
2022/09/19 23:53:05;;;;;;;4.90;4.50;;;12.20;99.90;;;;;;10405588;28;20194;-80
2022/09/19 23:58:07;;;;;;;4.57;4.17;;;12.30;99.90;;;;;;10397804;28;20194;-80
